»·PEaware :: N31WS KSBA-KSAC

N31WS :: KSBA-KSAC

FLIGHT INFORMATION

Flight Status: Arrived
Operator: Privately registered:
United States
More flights under this callsign
Pilot: Erik B. (9150)
Aircraft: GATES LEARJET LEARJET 35/36
(LJ35)
More flights by this aircraft type
Origin: KSBA Santa Barbara Mun
United States
Destination: KSAC Sacramento Executive
United States
More flights between these airports :: More routes between these airports
Route: +
File this flight plan on PilotEdge
Remarks:
Altitude:
(Current/Filed)
0ft
Speed:
(Current/Filed)
0kts
Departed: 03-Jan-18 11:01 AM
Arrived: 03-Jan-18 12:10 PM
Distance/Time
Traveled:
258nm/1:09
Distance/Time
To Go:
Arrived

Flight Plot

Page will automatically refresh every two minutes.

Flight plan parsing failed; only flown route is shown


Map Options




Map Legend


Flown Route
Filed Route
Departure Airport
Arrival Airport
Navaid (VOR, NDB)
Fix

Horizontal Profiles

Position Reports

Time Latitude Longitude Heading Altitude Ground
Speed
03-Jan-18 10:55 34.432170 -119.837514 339 13ft 0kts
03-Jan-18 10:56 34.432172 -119.837515 339 13ft 0kts
03-Jan-18 10:57 34.432175 -119.837516 339 13ft 0kts
03-Jan-18 10:58 34.432178 -119.837517 339 13ft 0kts
03-Jan-18 10:59 34.432204 -119.837254 139 13ft 1kts
03-Jan-18 11:00 34.431765 -119.836569 80 13ft 6kts
03-Jan-18 11:01 34.431939 -119.835337 173 13ft 5kts
03-Jan-18 11:02 34.429837 -119.835261 177 13ft 4kts
03-Jan-18 11:03 34.428611 -119.835204 177 13ft 3kts
03-Jan-18 11:04 34.428542 -119.835200 177 13ft 0kts
03-Jan-18 11:05 34.428507 -119.835199 177 13ft 2kts
03-Jan-18 11:06 34.427922 -119.835311 242 13ft 1kts
03-Jan-18 11:07 34.427780 -119.863306 269 935ft 177kts
03-Jan-18 11:08 34.427384 -119.939548 270 2810ft 241kts
03-Jan-18 11:09 34.425362 -120.021739 268 2998ft 244kts
03-Jan-18 11:10 34.422583 -120.101230 268 2990ft 228kts
03-Jan-18 11:11 34.421868 -120.176353 272 2990ft 219kts
03-Jan-18 11:12 34.448580 -120.232692 346 3002ft 208kts
03-Jan-18 11:13 34.501830 -120.209434 49 4285ft 230kts
03-Jan-18 11:14 34.545770 -120.134690 55 6368ft 278kts
03-Jan-18 11:15 34.588320 -120.076672 33 8294ft 228kts
03-Jan-18 11:16 34.648498 -120.039122 26 10328ft 252kts
03-Jan-18 11:17 34.712652 -120.003341 357 12325ft 256kts
03-Jan-18 11:18 34.780004 -120.028517 333 14347ft 270kts
03-Jan-18 11:19 34.857440 -120.070969 332 16416ft 330kts
03-Jan-18 11:20 34.942690 -120.118075 332 17410ft 340kts
03-Jan-18 11:21 35.027943 -120.164990 331 17487ft 324kts
03-Jan-18 11:22 35.109246 -120.211211 329 17487ft 321kts
03-Jan-18 11:23 35.186335 -120.264947 325 17497ft 319kts
03-Jan-18 11:24 35.262373 -120.321612 325 17498ft 319kts
03-Jan-18 11:25 35.338338 -120.378077 325 17498ft 320kts
03-Jan-18 11:26 35.414482 -120.434632 325 17499ft 320kts
03-Jan-18 11:27 35.491004 -120.491556 325 17499ft 321kts
03-Jan-18 11:28 35.567525 -120.548606 325 17283ft 328kts
03-Jan-18 11:29 35.648877 -120.607683 333 16553ft 346kts
03-Jan-18 11:30 35.742984 -120.631639 350 16506ft 345kts
03-Jan-18 11:31 35.838125 -120.640744 352 16502ft 341kts
03-Jan-18 11:32 35.932692 -120.648306 352 16500ft 338kts
03-Jan-18 11:33 36.026358 -120.655841 352 16499ft 337kts
03-Jan-18 11:34 36.119601 -120.663872 350 16530ft 338kts
03-Jan-18 11:35 36.197232 -120.676253 347 16503ft 335kts
03-Jan-18 11:36 36.304387 -120.697190 347 16486ft 333kts
03-Jan-18 11:37 36.380501 -120.712307 346 16484ft 332kts
03-Jan-18 11:38 36.471801 -120.730445 346 16518ft 331kts
03-Jan-18 11:39 36.577893 -120.751405 347 16506ft 331kts
03-Jan-18 11:40 36.601831 -120.756118 347 16506ft 330kts
03-Jan-18 11:41 36.661876 -120.767661 347 16517ft 269kts
03-Jan-18 11:42 36.730829 -120.785007 342 16501ft 293kts
03-Jan-18 11:43 36.797468 -120.807299 341 16581ft 314kts
03-Jan-18 11:44 36.884750 -120.837502 341 16505ft 333kts
03-Jan-18 11:45 36.974401 -120.868566 341 16506ft 330kts
03-Jan-18 11:46 37.003687 -120.878736 341 16504ft 326kts
03-Jan-18 11:47 37.019058 -120.884076 341 16658ft 319kts
03-Jan-18 11:48 37.104053 -120.913412 340 16571ft 317kts
03-Jan-18 11:49 37.170277 -120.936847 340 16503ft 317kts
03-Jan-18 11:50 37.255740 -120.966934 340 16505ft 320kts
03-Jan-18 11:51 37.342122 -120.997267 340 16506ft 323kts
03-Jan-18 11:52 37.428741 -121.027804 340 16507ft 324kts
03-Jan-18 11:53 37.515567 -121.058453 340 16508ft 325kts
03-Jan-18 11:54 37.602848 -121.089379 340 16508ft 325kts
03-Jan-18 11:55 37.689918 -121.120319 340 16508ft 325kts
03-Jan-18 11:56 37.777454 -121.151399 340 16509ft 326kts
03-Jan-18 11:57 37.836101 -121.176187 334 16509ft 324kts
03-Jan-18 11:58 37.909076 -121.217774 330 16510ft 313kts
03-Jan-18 11:59 37.980490 -121.262084 329 15783ft 272kts
03-Jan-18 12:00 38.047029 -121.303582 330 14579ft 262kts
03-Jan-18 12:01 38.112015 -121.343991 330 13375ft 257kts
03-Jan-18 12:02 38.169934 -121.380085 330 12286ft 254kts
03-Jan-18 12:03 38.224123 -121.411648 337 11266ft 247kts
03-Jan-18 12:04 38.292028 -121.433842 344 9466ft 257kts
03-Jan-18 12:05 38.362888 -121.440460 22 7571ft 263kts
03-Jan-18 12:06 38.401485 -121.368370 87 5720ft 257kts
03-Jan-18 12:07 38.363015 -121.309250 176 3811ft 233kts
03-Jan-18 12:08 38.321529 -121.355532 265 3042ft 204kts
03-Jan-18 12:09 38.348619 -121.413915 318 3011ft 196kts
03-Jan-18 12:10 38.390413 -121.453053 335 2998ft 179kts
03-Jan-18 12:11 38.438662 -121.466597 3 2472ft 182kts
03-Jan-18 12:12 38.484138 -121.474017 350 1924ft 145kts
03-Jan-18 12:13 38.519501 -121.453284 39 1238ft 161kts
03-Jan-18 12:14 38.551029 -121.457106 254 936ft 142kts
03-Jan-18 12:15 38.522449 -121.486372 213 113ft 124kts
03-Jan-18 12:16 38.509001 -121.497572 218 27ft 0kts
03-Jan-18 12:17 38.509041 -121.498520 302 27ft 2kts
03-Jan-18 12:18 38.509188 -121.498814 302 27ft 0kts
03-Jan-18 12:19 38.509797 -121.498786 33 27ft 4kts
03-Jan-18 12:20 38.511352 -121.497495 31 27ft 8kts
03-Jan-18 12:21 38.512174 -121.497214 267 27ft 3kts

Navigation Log

Ident Type
Flight plan parsing failed, navigation log unavailable